createdAt,value
2019-02-21T00:01:27.798Z,18.13
2019-02-21T00:03:54.372Z,17.60
2019-02-21T00:06:20.723Z,17.67
2019-02-21T00:08:47.104Z,17.03
2019-02-21T00:11:13.529Z,17.83
2019-02-21T00:13:39.918Z,17.97
2019-02-21T00:16:06.269Z,16.87
2019-02-21T00:18:32.703Z,16.27
2019-02-21T00:20:59.122Z,21.50
2019-02-21T00:23:25.448Z,28.33
2019-02-21T00:25:51.844Z,18.13
2019-02-21T00:28:18.171Z,16.50
2019-02-21T00:30:44.576Z,22.80
2019-02-21T00:33:10.892Z,16.17
2019-02-21T00:35:37.278Z,16.17
2019-02-21T00:38:03.670Z,18.70
2019-02-21T00:40:30.107Z,17.13
2019-02-21T00:42:56.481Z,17.27
2019-02-21T00:45:22.811Z,16.53
2019-02-21T00:47:49.200Z,17.33
2019-02-21T00:50:15.587Z,16.90
2019-02-21T00:52:41.967Z,17.67
2019-02-21T00:55:08.380Z,17.43
2019-02-21T00:57:34.764Z,18.27
2019-02-21T01:00:01.184Z,18.73
2019-02-21T01:02:27.526Z,21.37
2019-02-21T01:04:53.959Z,18.97
2019-02-21T01:07:20.272Z,19.73
2019-02-21T01:09:46.679Z,19.20
2019-02-21T01:12:14.026Z,20.00
2019-02-21T01:14:40.436Z,19.87
2019-02-21T01:17:06.777Z,21.17
2019-02-21T01:19:33.179Z,19.17
2019-02-21T01:21:59.528Z,19.67
2019-02-21T01:24:25.895Z,20.00
2019-02-21T01:26:53.614Z,20.73
2019-02-21T01:29:20.000Z,20.57
2019-02-21T01:31:46.439Z,20.63
2019-02-21T01:34:12.795Z,21.30
2019-02-21T01:36:39.125Z,20.50
2019-02-21T01:39:05.703Z,21.90
2019-02-21T01:41:32.428Z,22.37
2019-02-21T01:43:58.813Z,20.80
2019-02-21T01:46:25.135Z,28.27
2019-02-21T01:48:51.553Z,23.00
2019-02-21T01:51:17.958Z,21.43
2019-02-21T01:53:44.308Z,21.57
2019-02-21T01:56:10.717Z,22.10
2019-02-21T01:58:37.363Z,22.87
2019-02-21T02:01:08.511Z,23.87
2019-02-21T02:03:31.919Z,22.40
2019-02-21T02:05:58.283Z,23.97
2019-02-21T02:08:24.609Z,23.97
2019-02-21T02:10:51.078Z,22.33
2019-02-21T02:13:24.487Z,23.37
2019-02-21T02:15:45.564Z,22.60
2019-02-21T02:18:11.972Z,24.60
2019-02-21T02:20:38.314Z,24.40
2019-02-21T02:23:04.671Z,24.50
2019-02-21T02:25:31.028Z,22.90
2019-02-21T02:27:57.393Z,24.20
2019-02-21T02:30:23.812Z,23.73
2019-02-21T02:32:50.169Z,25.30
2019-02-21T02:35:16.551Z,25.57
2019-02-21T02:37:42.894Z,24.77
2019-02-21T02:40:09.235Z,24.97
2019-02-21T02:42:35.583Z,24.80
2019-02-21T02:45:01.963Z,25.13
2019-02-21T02:47:29.636Z,24.87
2019-02-21T02:49:55.949Z,24.50
2019-02-21T02:52:22.373Z,24.20
2019-02-21T02:54:48.698Z,26.53
2019-02-21T02:57:15.111Z,27.20
2019-02-21T02:59:41.453Z,27.60
2019-02-21T03:02:07.843Z,25.93
2019-02-21T03:04:34.206Z,27.57
2019-02-21T03:07:00.565Z,26.77
2019-02-21T03:09:27.077Z,26.60
2019-02-21T03:11:53.483Z,26.80
2019-02-21T03:14:19.942Z,26.67
2019-02-21T03:16:46.295Z,26.07
2019-02-21T03:19:12.669Z,28.07
2019-02-21T03:21:39.069Z,26.87
2019-02-21T03:24:05.533Z,26.93
2019-02-21T03:26:32.001Z,28.93
2019-02-21T03:28:58.417Z,29.43
2019-02-21T03:31:26.131Z,26.77
2019-02-21T03:33:52.859Z,28.57
2019-02-21T03:36:19.588Z,28.77
2019-02-21T03:38:46.379Z,28.63
2019-02-21T03:41:12.993Z,29.47
2019-02-21T03:43:39.755Z,30.37
2019-02-21T03:46:06.346Z,30.97
2019-02-21T03:48:32.860Z,31.73
2019-02-21T03:50:59.192Z,32.97
2019-02-21T03:53:25.637Z,31.47
2019-02-21T03:55:52.288Z,31.73
2019-02-21T03:58:18.674Z,32.17
2019-02-21T04:00:45.013Z,32.53
2019-02-21T04:03:11.448Z,31.40
2019-02-21T04:05:37.754Z,32.47
2019-02-21T04:08:04.235Z,31.67
2019-02-21T04:10:30.617Z,30.23
2019-02-21T04:12:57.209Z,28.77
2019-02-21T04:15:23.621Z,30.93
2019-02-21T04:17:50.002Z,30.27
2019-02-21T04:20:16.428Z,30.57
2019-02-21T04:22:42.768Z,27.87
2019-02-21T04:25:09.160Z,30.47
2019-02-21T04:27:35.540Z,29.13
2019-02-21T04:30:02.054Z,30.40
2019-02-21T04:32:28.496Z,28.10
2019-02-21T04:34:54.900Z,28.43
2019-02-21T04:37:21.267Z,29.20
2019-02-21T04:39:47.674Z,29.00
2019-02-21T04:42:15.071Z,28.63
2019-02-21T04:44:41.411Z,29.63
2019-02-21T04:47:07.791Z,28.40
2019-02-21T04:49:34.193Z,29.50
2019-02-21T04:52:00.599Z,27.30
2019-02-21T04:54:26.923Z,28.37
2019-02-21T04:56:53.470Z,30.07
2019-02-21T04:59:20.788Z,27.00
2019-02-21T05:01:47.143Z,27.93
2019-02-21T05:04:13.472Z,27.93
2019-02-21T05:06:39.882Z,27.00
2019-02-21T05:09:07.487Z,26.37
2019-02-21T05:11:34.178Z,25.27
2019-02-21T05:14:00.635Z,24.93
2019-02-21T05:16:26.995Z,27.63
2019-02-21T05:18:53.347Z,26.53
2019-02-21T05:21:19.774Z,26.63
2019-02-21T05:23:46.130Z,27.47
2019-02-21T05:26:14.432Z,26.80
2019-02-21T05:28:41.334Z,28.83
2019-02-21T05:31:09.809Z,27.07
2019-02-21T05:33:50.213Z,29.37
2019-02-21T05:36:18.536Z,29.33
2019-02-21T05:38:46.796Z,30.27
2019-02-21T05:41:18.126Z,30.43
2019-02-21T05:43:58.548Z,30.80
2019-02-21T05:46:32.625Z,30.20
2019-02-21T05:49:00.968Z,30.10
2019-02-21T05:51:29.278Z,30.00
2019-02-21T05:54:00.668Z,32.70
2019-02-21T05:56:28.982Z,34.03
2019-02-21T05:59:00.000Z,31.43
2019-02-21T06:01:28.431Z,30.93
2019-02-21T06:03:57.647Z,33.00
2019-02-21T06:06:42.498Z,33.73
2019-02-21T06:09:10.764Z,31.67
2019-02-21T06:11:39.069Z,33.93
2019-02-21T06:14:09.853Z,33.37
2019-02-21T06:16:54.564Z,36.60
2019-02-21T06:19:22.832Z,32.53
2019-02-21T06:22:10.653Z,33.00
2019-02-21T06:24:50.915Z,32.83
2019-02-21T06:27:19.144Z,34.03
2019-02-21T06:29:47.450Z,34.77
2019-02-21T06:32:14.616Z,34.30
2019-02-21T06:34:41.185Z,33.80
2019-02-21T06:37:07.565Z,33.27
2019-02-21T06:39:33.924Z,35.17
2019-02-21T06:42:00.522Z,34.73
2019-02-21T06:44:26.977Z,35.43
2019-02-21T06:46:53.334Z,36.60
2019-02-21T06:49:19.745Z,38.00
2019-02-21T06:51:46.113Z,34.40
2019-02-21T06:54:12.476Z,37.17
2019-02-21T06:56:38.847Z,36.47
2019-02-21T06:59:05.213Z,36.83
2019-02-21T07:01:31.595Z,36.37
2019-02-21T07:03:57.923Z,34.50
2019-02-21T07:06:31.940Z,34.40
2019-02-21T07:08:54.154Z,36.30
2019-02-21T07:11:20.712Z,36.17
2019-02-21T07:13:47.078Z,41.37
2019-02-21T07:16:13.469Z,37.33
2019-02-21T07:18:40.890Z,36.13
2019-02-21T07:21:07.591Z,37.80
2019-02-21T07:23:43.069Z,38.00
2019-02-21T07:26:03.038Z,40.17
2019-02-21T07:28:29.845Z,38.17
2019-02-21T07:30:56.353Z,37.57
2019-02-21T07:33:28.623Z,38.80
2019-02-21T07:35:50.915Z,39.10
2019-02-21T07:38:17.411Z,38.90
2019-02-21T07:40:43.821Z,36.17
2019-02-21T07:43:12.660Z,37.47
2019-02-21T07:45:38.613Z,38.50
2019-02-21T07:48:04.995Z,39.50
2019-02-21T07:50:31.371Z,39.07
2019-02-21T07:53:02.526Z,38.00
2019-02-21T07:55:25.978Z,41.47
2019-02-21T07:57:52.338Z,43.63
2019-02-21T08:00:18.685Z,38.17
2019-02-21T08:02:45.085Z,37.80
2019-02-21T08:05:11.485Z,40.80
2019-02-21T08:07:37.820Z,39.70
2019-02-21T08:10:07.433Z,41.13
2019-02-21T08:12:34.818Z,41.33
2019-02-21T08:15:01.229Z,44.17
2019-02-21T08:17:28.060Z,39.77
2019-02-21T08:20:07.288Z,38.43
2019-02-21T08:22:23.974Z,39.77
2019-02-21T08:24:50.335Z,38.53
2019-02-21T08:27:16.771Z,37.53
2019-02-21T08:29:43.201Z,39.23
2019-02-21T08:32:11.564Z,39.37
2019-02-21T08:34:40.033Z,38.80
2019-02-21T08:37:08.716Z,38.83
2019-02-21T08:39:34.546Z,36.77
2019-02-21T08:42:00.946Z,36.67
2019-02-21T08:44:28.917Z,37.80
2019-02-21T08:46:55.527Z,39.10
2019-02-21T08:49:22.610Z,36.87
2019-02-21T08:51:49.047Z,37.57
2019-02-21T08:54:15.355Z,38.13
2019-02-21T08:56:42.955Z,35.07
2019-02-21T08:59:09.300Z,38.73
2019-02-21T09:01:35.938Z,38.30
2019-02-21T09:04:09.888Z,36.17
2019-02-21T09:06:30.686Z,38.50
2019-02-21T09:08:57.101Z,36.20
2019-02-21T09:11:23.479Z,37.07
2019-02-21T09:13:49.837Z,38.97
2019-02-21T09:16:17.821Z,35.57
2019-02-21T09:18:44.386Z,36.17
2019-02-21T09:21:11.912Z,34.90
2019-02-21T09:23:38.329Z,37.77
2019-02-21T09:26:04.644Z,38.53
2019-02-21T09:28:31.012Z,39.03
2019-02-21T09:30:57.386Z,35.63
2019-02-21T09:33:23.787Z,38.50
2019-02-21T09:35:50.137Z,33.07
2019-02-21T09:38:16.532Z,36.80
2019-02-21T09:40:42.960Z,36.37
2019-02-21T09:43:09.350Z,35.23
2019-02-21T09:45:35.742Z,35.80
2019-02-21T09:48:02.128Z,35.07
2019-02-21T09:50:28.658Z,38.93
2019-02-21T09:52:55.059Z,38.23
2019-02-21T09:55:21.474Z,36.90
2019-02-21T09:57:47.843Z,38.33
2019-02-21T10:00:21.073Z,37.87
2019-02-21T10:02:47.485Z,39.10
2019-02-21T10:05:13.864Z,41.00
2019-02-21T10:07:40.192Z,39.00
2019-02-21T10:10:10.396Z,48.40
2019-02-21T10:12:36.813Z,43.37
2019-02-21T10:15:06.361Z,41.53
2019-02-21T10:17:33.102Z,43.23
2019-02-21T10:19:59.472Z,41.53
2019-02-21T10:22:26.295Z,40.43
2019-02-21T10:24:52.716Z,40.60
2019-02-21T10:27:19.114Z,41.47
2019-02-21T10:29:45.447Z,40.63
2019-02-21T10:32:11.811Z,40.70
2019-02-21T10:34:42.943Z,40.33
2019-02-21T10:37:06.463Z,43.70
2019-02-21T10:39:32.864Z,42.97
2019-02-21T10:41:59.226Z,42.63
2019-02-21T10:44:25.625Z,44.03
2019-02-21T10:46:54.979Z,43.33
2019-02-21T10:49:21.427Z,42.93
2019-02-21T10:51:47.816Z,42.73
2019-02-21T10:54:14.198Z,42.33
2019-02-21T10:56:40.537Z,42.40
2019-02-21T10:59:06.981Z,40.43
2019-02-21T11:01:33.467Z,42.37
2019-02-21T11:03:59.903Z,41.97
2019-02-21T11:06:26.281Z,41.17
2019-02-21T11:08:52.726Z,43.83
2019-02-21T11:11:19.140Z,42.37
2019-02-21T11:13:45.487Z,43.30
2019-02-21T11:16:11.820Z,46.07
2019-02-21T11:18:38.586Z,41.27
2019-02-21T11:21:04.951Z,40.03
2019-02-21T11:23:31.322Z,42.10
2019-02-21T11:25:57.790Z,40.33
2019-02-21T11:28:24.251Z,40.10
2019-02-21T11:30:50.802Z,38.87
2019-02-21T11:33:17.251Z,42.37
2019-02-21T11:35:43.675Z,40.93
2019-02-21T11:38:10.111Z,40.37
2019-02-21T11:40:36.535Z,44.47
2019-02-21T11:43:02.893Z,45.50
2019-02-21T11:45:30.202Z,47.37
2019-02-21T11:47:56.919Z,53.10
2019-02-21T11:50:23.343Z,53.47
2019-02-21T11:52:49.812Z,50.70
2019-02-21T11:55:21.066Z,44.70
2019-02-21T11:57:47.462Z,51.70
2019-02-21T12:00:16.958Z,49.13
2019-02-21T12:02:43.357Z,53.50
2019-02-21T12:05:17.115Z,47.37
2019-02-21T12:07:38.035Z,47.90
2019-02-21T12:10:07.759Z,43.97
2019-02-21T12:12:34.150Z,48.83
2019-02-21T12:15:00.536Z,50.10
2019-02-21T12:17:26.882Z,49.87
2019-02-21T12:19:53.286Z,44.30
2019-02-21T12:22:19.670Z,43.20
2019-02-21T12:24:46.072Z,44.40
2019-02-21T12:27:12.423Z,42.43
2019-02-21T12:29:38.842Z,42.17
2019-02-21T12:32:05.213Z,43.40
2019-02-21T12:34:31.674Z,45.37
2019-02-21T12:36:58.032Z,45.63
2019-02-21T12:39:25.373Z,42.20
2019-02-21T12:41:51.873Z,42.10
2019-02-21T12:44:19.180Z,39.47
2019-02-21T12:46:45.827Z,40.10
2019-02-21T12:49:12.214Z,38.50
2019-02-21T12:51:38.760Z,40.07
2019-02-21T12:54:05.110Z,44.40
2019-02-21T12:56:31.531Z,41.73
2019-02-21T12:58:57.853Z,42.27
2019-02-21T13:01:24.328Z,43.10
2019-02-21T13:03:50.706Z,42.50
2019-02-21T13:06:17.087Z,44.40
2019-02-21T13:08:43.468Z,53.70
2019-02-21T13:11:09.871Z,45.57
2019-02-21T13:13:36.233Z,47.00
2019-02-21T13:16:02.737Z,49.33
2019-02-21T13:18:29.080Z,54.37
2019-02-21T13:20:55.499Z,52.60
2019-02-21T13:23:21.873Z,55.47
2019-02-21T13:25:48.308Z,51.33
2019-02-21T13:28:14.734Z,53.47
2019-02-21T13:30:41.109Z,56.63
2019-02-21T13:33:07.558Z,57.43
2019-02-21T13:35:34.094Z,59.53
2019-02-21T13:38:00.540Z,47.10
2019-02-21T13:40:26.950Z,44.17
2019-02-21T13:42:53.348Z,44.40
2019-02-21T13:45:19.774Z,46.10
2019-02-21T13:47:46.070Z,47.77
2019-02-21T13:50:15.294Z,43.10
2019-02-21T13:52:41.803Z,54.40
2019-02-21T13:55:08.240Z,43.70
2019-02-21T13:57:34.718Z,50.60
2019-02-21T14:00:02.458Z,60.07
2019-02-21T14:02:30.786Z,51.00
2019-02-21T14:04:58.870Z,59.03
2019-02-21T14:07:25.543Z,45.13
2019-02-21T14:09:51.915Z,40.47
2019-02-21T14:12:18.375Z,42.43
2019-02-21T14:14:44.820Z,43.07
2019-02-21T14:17:11.236Z,38.27
2019-02-21T14:19:37.627Z,47.57
2019-02-21T14:22:05.169Z,43.23
2019-02-21T14:24:36.741Z,48.73
2019-02-21T14:26:59.876Z,47.87
2019-02-21T14:29:26.385Z,80.30
2019-02-21T14:31:52.811Z,46.33
2019-02-21T14:34:19.459Z,58.80
2019-02-21T14:36:45.898Z,74.47
2019-02-21T14:39:12.604Z,45.10
2019-02-21T14:41:39.127Z,49.83
2019-02-21T14:44:05.505Z,52.07
2019-02-21T14:46:32.050Z,62.70
2019-02-21T14:48:58.460Z,53.33
2019-02-21T14:51:25.109Z,57.10
2019-02-21T14:53:51.506Z,62.57
2019-02-21T14:56:20.008Z,65.33
2019-02-21T14:58:46.973Z,47.07
2019-02-21T15:01:13.590Z,47.73
2019-02-21T15:03:40.009Z,50.00
2019-02-21T15:06:06.582Z,53.43
2019-02-21T15:08:33.001Z,51.73
2019-02-21T15:10:59.409Z,45.23
2019-02-21T15:13:25.858Z,46.47
2019-02-21T15:15:52.633Z,46.07
2019-02-21T15:18:19.179Z,64.87
2019-02-21T15:20:45.546Z,50.60
2019-02-21T15:23:12.261Z,44.23
2019-02-21T15:25:38.566Z,44.47
2019-02-21T15:28:05.181Z,46.43
2019-02-21T15:30:31.518Z,42.23
2019-02-21T15:32:58.039Z,40.23
2019-02-21T15:35:24.400Z,43.13
2019-02-21T15:37:50.805Z,44.00
2019-02-21T15:40:17.142Z,43.23
2019-02-21T15:42:44.526Z,43.03
2019-02-21T15:45:23.009Z,44.07
2019-02-21T15:47:45.019Z,67.13
2019-02-21T15:50:12.763Z,56.57
2019-02-21T15:52:40.717Z,43.63
2019-02-21T15:55:12.671Z,55.07
2019-02-21T15:57:38.516Z,50.00
2019-02-21T16:00:08.518Z,44.70
2019-02-21T16:02:34.895Z,45.40
2019-02-21T16:05:01.294Z,44.20
2019-02-21T16:07:27.706Z,63.13
2019-02-21T16:09:54.069Z,71.33
2019-02-21T16:12:20.578Z,62.60
2019-02-21T16:14:47.485Z,58.07
2019-02-21T16:17:14.986Z,61.10
2019-02-21T16:19:41.357Z,60.07
2019-02-21T16:22:07.746Z,71.13
2019-02-21T16:24:34.086Z,68.63
2019-02-21T16:27:01.569Z,66.87
2019-02-21T16:29:28.007Z,61.50
2019-02-21T16:31:54.388Z,69.83
2019-02-21T16:34:20.828Z,67.23
2019-02-21T16:36:47.173Z,77.33
2019-02-21T16:39:13.540Z,66.70
2019-02-21T16:41:39.968Z,72.03
2019-02-21T16:44:07.202Z,65.43
2019-02-21T16:46:33.620Z,79.53
2019-02-21T16:49:00.059Z,78.93
2019-02-21T16:51:27.406Z,75.57
2019-02-21T16:53:53.772Z,72.47
2019-02-21T16:56:20.260Z,65.50
2019-02-21T16:58:46.573Z,64.43
2019-02-21T17:01:12.990Z,68.33
2019-02-21T17:03:39.387Z,75.30
2019-02-21T17:06:05.788Z,63.77
2019-02-21T17:08:32.157Z,64.83
2019-02-21T17:10:58.589Z,73.50
2019-02-21T17:13:24.920Z,75.00
2019-02-21T17:15:51.341Z,77.77
2019-02-21T17:18:17.729Z,77.83
2019-02-21T17:20:44.268Z,76.33
2019-02-21T17:23:10.689Z,79.77
2019-02-21T17:25:37.060Z,77.20
2019-02-21T17:28:03.448Z,78.10
2019-02-21T17:30:29.862Z,87.87
2019-02-21T17:32:56.287Z,81.27
2019-02-21T17:35:23.814Z,78.13
2019-02-21T17:37:50.158Z,72.60
2019-02-21T17:40:21.040Z,83.10
2019-02-21T17:42:47.661Z,89.63
2019-02-21T17:45:14.075Z,76.40
2019-02-21T17:47:40.461Z,63.43
2019-02-21T17:50:10.902Z,68.50
2019-02-21T17:52:37.349Z,71.40
2019-02-21T17:55:06.201Z,78.67
2019-02-21T17:57:32.752Z,90.47
2019-02-21T17:59:59.104Z,122.73
2019-02-21T18:02:25.504Z,113.40
2019-02-21T18:04:51.882Z,116.23
2019-02-21T18:07:18.250Z,116.70
2019-02-21T18:09:44.627Z,100.60
2019-02-21T18:12:11.053Z,93.77
2019-02-21T18:14:37.460Z,89.60
2019-02-21T18:17:05.151Z,74.30
2019-02-21T18:19:31.565Z,83.70
2019-02-21T18:21:58.098Z,77.87
2019-02-21T18:24:24.499Z,87.70
2019-02-21T18:26:50.904Z,89.17
2019-02-21T18:29:17.499Z,86.43
2019-02-21T18:31:43.896Z,83.50
2019-02-21T18:34:10.293Z,89.77
2019-02-21T18:36:37.171Z,84.60
2019-02-21T18:39:05.558Z,107.70
2019-02-21T18:41:33.859Z,98.57
2019-02-21T18:44:00.323Z,123.20
2019-02-21T18:46:27.384Z,111.53
2019-02-21T18:48:54.005Z,116.67
2019-02-21T18:51:20.466Z,113.93
2019-02-21T18:53:46.878Z,130.70
2019-02-21T18:56:13.231Z,120.93
2019-02-21T18:58:39.730Z,120.10
2019-02-21T19:01:06.264Z,112.70
2019-02-21T19:03:32.737Z,99.30
2019-02-21T19:05:59.095Z,88.53
2019-02-21T19:08:25.524Z,99.73
2019-02-21T19:10:51.887Z,98.33
2019-02-21T19:13:18.415Z,87.53
2019-02-21T19:15:44.915Z,77.90
2019-02-21T19:18:11.415Z,77.37
2019-02-21T19:20:37.866Z,87.37
2019-02-21T19:23:04.503Z,83.47
2019-02-21T19:25:31.018Z,77.07
2019-02-21T19:27:57.441Z,79.50
2019-02-21T19:30:35.930Z,77.87
2019-02-21T19:33:02.332Z,68.70
2019-02-21T19:35:29.871Z,63.27
2019-02-21T19:37:56.265Z,62.17
2019-02-21T19:40:22.692Z,58.53
2019-02-21T19:42:49.202Z,59.13
2019-02-21T19:45:15.591Z,61.63
2019-02-21T19:47:42.022Z,60.90
2019-02-21T19:50:08.855Z,52.17
2019-02-21T19:52:35.243Z,42.93
2019-02-21T19:55:01.717Z,41.03
2019-02-21T19:57:28.138Z,45.73
2019-02-21T19:59:54.566Z,43.13
2019-02-21T20:02:20.981Z,45.27
2019-02-21T20:04:47.414Z,36.10
2019-02-21T20:07:13.862Z,35.50
2019-02-21T20:09:40.257Z,29.57
2019-02-21T20:12:06.823Z,29.67
2019-02-21T20:14:33.501Z,24.17
2019-02-21T20:16:59.988Z,21.87
2019-02-21T20:19:26.453Z,19.17
2019-02-21T20:21:54.572Z,22.20
2019-02-21T20:24:21.238Z,14.70
2019-02-21T20:26:47.673Z,14.90
2019-02-21T20:29:14.052Z,11.47
2019-02-21T20:31:40.453Z,13.83
2019-02-21T20:34:07.051Z,20.57
2019-02-21T20:36:33.521Z,39.03
2019-02-21T20:39:00.059Z,39.93
2019-02-21T20:41:26.640Z,28.20
2019-02-21T20:43:53.105Z,24.73
2019-02-21T20:46:19.663Z,15.27
2019-02-21T20:48:46.280Z,14.60
2019-02-21T20:51:12.707Z,25.00
2019-02-21T20:53:39.187Z,19.60
2019-02-21T20:56:06.275Z,22.77
2019-02-21T20:58:32.842Z,34.17
2019-02-21T21:00:59.751Z,20.53
2019-02-21T21:03:27.561Z,20.67
2019-02-21T21:05:54.219Z,20.37
2019-02-21T21:08:22.504Z,20.07
2019-02-21T21:10:49.200Z,185.47
2019-02-21T21:13:15.888Z,63.13
2019-02-21T21:15:42.776Z,52.93
2019-02-21T21:18:09.795Z,97.10
2019-02-21T21:20:37.242Z,90.43
2019-02-21T21:23:04.491Z,73.40
2019-02-21T21:25:31.987Z,92.67
2019-02-21T21:27:59.602Z,108.53
2019-02-21T21:30:26.937Z,54.87
2019-02-21T21:32:54.344Z,140.80
2019-02-21T21:35:20.915Z,84.00
2019-02-21T21:37:47.760Z,35.33
2019-02-21T21:40:16.330Z,26.40
2019-02-21T21:42:43.243Z,109.07
2019-02-21T21:45:13.574Z,124.27
2019-02-21T21:47:40.354Z,27.43
2019-02-21T21:50:10.632Z,200.37
2019-02-21T21:52:37.383Z,70.30
2019-02-21T21:55:04.094Z,246.87
2019-02-21T21:57:30.772Z,89.70
2019-02-21T21:59:57.829Z,122.63
2019-02-21T22:02:24.636Z,174.03
2019-02-21T22:04:51.255Z,55.43
2019-02-21T22:07:17.643Z,66.40
2019-02-21T22:09:44.069Z,258.80
2019-02-21T22:12:10.501Z,81.57
2019-02-21T22:14:37.450Z,49.27
2019-02-21T22:17:03.987Z,160.03
2019-02-21T22:19:30.950Z,106.43
2019-02-21T22:21:57.339Z,45.80
2019-02-21T22:24:24.050Z,120.90
2019-02-21T22:26:50.480Z,56.00
2019-02-21T22:29:16.911Z,37.67
2019-02-21T22:31:43.261Z,52.63
2019-02-21T22:34:09.681Z,136.57
2019-02-21T22:36:36.139Z,180.30
2019-02-21T22:39:15.521Z,111.77
2019-02-21T22:41:35.089Z,187.30
2019-02-21T22:44:01.545Z,180.23
2019-02-21T22:46:28.034Z,59.63
2019-02-21T22:48:54.399Z,61.93
2019-02-21T22:51:20.808Z,51.53
2019-02-21T22:53:47.182Z,92.73
2019-02-21T22:56:13.598Z,45.07
2019-02-21T22:58:45.029Z,49.77
2019-02-21T23:01:13.984Z,43.60
2019-02-21T23:03:47.041Z,20.07
2019-02-21T23:06:20.318Z,46.70
2019-02-21T23:08:51.702Z,47.93
2019-02-21T23:11:18.147Z,69.67
2019-02-21T23:13:45.309Z,42.03
2019-02-21T23:16:11.682Z,36.33
2019-02-21T23:18:38.177Z,36.30
2019-02-21T23:21:04.559Z,54.13
2019-02-21T23:23:31.102Z,28.60
2019-02-21T23:25:57.485Z,16.80
2019-02-21T23:28:23.906Z,21.80
2019-02-21T23:30:50.308Z,26.80
2019-02-21T23:33:16.752Z,12.17
2019-02-21T23:35:43.196Z,21.30
2019-02-21T23:38:09.551Z,14.03
2019-02-21T23:40:37.033Z,12.83
2019-02-21T23:43:03.656Z,21.00
2019-02-21T23:45:30.064Z,15.07
2019-02-21T23:47:56.439Z,9.60
2019-02-21T23:50:22.829Z,10.27
2019-02-21T23:52:49.151Z,12.40
2019-02-21T23:55:15.536Z,11.93
2019-02-21T23:57:41.932Z,12.03
